createdAt,value
2019-03-19T00:03:51.943Z,867.27
2019-03-19T00:08:55.673Z,965.87
2019-03-19T00:13:59.381Z,725.83
2019-03-19T00:19:10.033Z,979.17
2019-03-19T00:24:13.976Z,976.73
2019-03-19T00:29:17.950Z,963.73
2019-03-19T00:34:21.686Z,976.03
2019-03-19T00:39:25.385Z,830.30
2019-03-19T00:44:29.099Z,897.27
2019-03-19T00:49:32.837Z,953.37
2019-03-19T00:54:36.549Z,694.23
2019-03-19T00:59:40.523Z,940.10
2019-03-19T01:04:44.238Z,788.83
2019-03-19T01:09:48.305Z,869.93
2019-03-19T01:14:52.274Z,842.57
2019-03-19T01:19:56.262Z,958.30
2019-03-19T01:24:59.977Z,980.60
2019-03-19T01:30:03.942Z,926.20
2019-03-19T01:35:08.141Z,977.13
2019-03-19T01:40:12.034Z,777.97
2019-03-19T01:45:15.828Z,999.90
2019-03-19T01:50:19.779Z,955.87
2019-03-19T01:55:25.553Z,824.30
2019-03-19T02:00:28.920Z,969.80
2019-03-19T02:05:32.616Z,976.83
2019-03-19T02:10:36.402Z,946.73
2019-03-19T02:15:40.134Z,961.17
2019-03-19T02:20:44.090Z,859.90
2019-03-19T02:25:47.825Z,999.90
2019-03-19T02:30:51.851Z,967.93
2019-03-19T02:35:55.675Z,921.10
2019-03-19T02:40:59.372Z,938.93
2019-03-19T02:46:03.103Z,776.43
2019-03-19T02:51:06.813Z,999.90
2019-03-19T02:56:10.785Z,999.90
2019-03-19T03:01:14.875Z,774.33
2019-03-19T03:06:18.635Z,999.90
2019-03-19T03:11:22.392Z,837.43
2019-03-19T03:16:26.124Z,945.77
2019-03-19T03:21:29.830Z,916.47
2019-03-19T03:26:47.028Z,989.17
2019-03-19T03:31:39.350Z,900.30
2019-03-19T03:36:43.131Z,999.90
2019-03-19T03:41:47.095Z,891.17
2019-03-19T03:46:50.826Z,999.90
2019-03-19T03:51:54.622Z,914.47
2019-03-19T03:57:02.585Z,869.97
2019-03-19T04:02:10.208Z,862.77
2019-03-19T04:07:13.927Z,998.70
2019-03-19T04:12:17.649Z,895.90
2019-03-19T04:17:21.360Z,906.33
2019-03-19T04:22:25.082Z,989.17
2019-03-19T04:27:29.132Z,883.87
2019-03-19T04:32:32.911Z,901.30
2019-03-19T04:37:36.623Z,899.13
2019-03-19T04:42:40.407Z,786.60
2019-03-19T04:47:44.383Z,799.40
2019-03-19T04:52:48.363Z,817.03
2019-03-19T04:57:52.332Z,929.70
2019-03-19T05:03:00.191Z,979.43
2019-03-19T05:08:03.970Z,999.90
2019-03-19T05:13:07.692Z,967.90
2019-03-19T05:18:11.388Z,941.03
2019-03-19T05:23:15.345Z,951.00
2019-03-19T05:28:19.110Z,962.40
2019-03-19T05:33:22.840Z,919.43
2019-03-19T05:38:27.904Z,933.17
2019-03-19T05:43:31.614Z,822.73
2019-03-19T05:48:35.582Z,878.90
2019-03-19T05:53:41.367Z,925.20
2019-03-19T05:58:45.086Z,643.63
2019-03-19T06:03:48.804Z,933.20
2019-03-19T06:08:52.789Z,595.33
2019-03-19T06:13:56.823Z,909.57
2019-03-19T06:19:00.626Z,795.13
2019-03-19T06:24:04.402Z,911.00
2019-03-19T06:29:08.111Z,926.93
2019-03-19T06:34:11.826Z,968.60
2019-03-19T06:39:15.783Z,979.57
2019-03-19T06:44:19.742Z,957.97
2019-03-19T06:49:23.451Z,999.90
2019-03-19T06:54:27.151Z,927.30
2019-03-19T06:59:30.856Z,999.90
2019-03-19T07:04:34.555Z,999.90
2019-03-19T07:09:41.542Z,999.90
2019-03-19T07:14:45.516Z,999.90
2019-03-19T07:19:49.215Z,995.93
2019-03-19T07:24:52.926Z,999.90
2019-03-19T07:29:56.693Z,976.47
2019-03-19T07:35:00.435Z,995.57
2019-03-19T07:40:05.232Z,969.40
2019-03-19T07:45:11.624Z,787.63
2019-03-19T07:50:16.127Z,999.90
2019-03-19T07:55:19.836Z,816.53
2019-03-19T08:00:23.867Z,847.43
2019-03-19T08:05:33.053Z,999.40
2019-03-19T08:10:33.003Z,999.90
2019-03-19T08:15:36.698Z,999.90
2019-03-19T08:20:40.408Z,879.60
2019-03-19T08:25:44.378Z,785.63
2019-03-19T08:30:48.083Z,923.87
2019-03-19T08:35:51.798Z,989.27
2019-03-19T08:40:55.603Z,996.23
2019-03-19T08:45:59.404Z,966.60
2019-03-19T08:51:03.343Z,999.90
2019-03-19T08:56:07.060Z,909.30
2019-03-19T09:01:11.114Z,991.70
2019-03-19T09:06:14.821Z,836.63
2019-03-19T09:11:18.520Z,913.07
2019-03-19T09:16:22.473Z,962.60
2019-03-19T09:21:26.167Z,785.80
2019-03-19T09:26:29.894Z,999.90
2019-03-19T09:31:33.602Z,999.90
2019-03-19T09:36:37.314Z,998.23
2019-03-19T09:41:41.284Z,999.90
2019-03-19T09:46:45.004Z,991.63
2019-03-19T09:51:48.711Z,895.27
2019-03-19T09:56:57.447Z,999.90
2019-03-19T10:02:01.167Z,999.90
2019-03-19T10:07:06.340Z,913.93
2019-03-19T10:12:10.402Z,946.03
2019-03-19T10:17:14.191Z,834.40
2019-03-19T10:22:17.905Z,735.53
2019-03-19T10:27:21.612Z,999.90
2019-03-19T10:32:25.566Z,924.47
2019-03-19T10:37:29.299Z,902.63
2019-03-19T10:42:33.006Z,918.23
2019-03-19T10:47:36.706Z,914.17
2019-03-19T10:52:40.410Z,999.90
2019-03-19T10:57:44.259Z,391.33
2019-03-19T11:02:48.103Z,814.77
2019-03-19T11:07:51.888Z,367.17
2019-03-19T11:12:55.854Z,300.33
2019-03-19T11:17:59.808Z,425.40
2019-03-19T11:23:03.517Z,384.93
2019-03-19T11:28:08.038Z,96.47
2019-03-19T11:33:12.080Z,62.73
2019-03-19T11:38:16.052Z,64.73
2019-03-19T11:43:20.009Z,81.83
2019-03-19T11:48:23.711Z,31.50
2019-03-19T11:53:27.421Z,39.13
2019-03-19T11:58:31.120Z,91.27
2019-03-19T12:03:34.917Z,111.83
2019-03-19T12:08:38.888Z,54.90
2019-03-19T12:13:42.618Z,62.70
2019-03-19T12:18:46.352Z,141.60
2019-03-19T12:23:50.330Z,29.47
2019-03-19T12:28:54.028Z,86.60
2019-03-19T12:33:57.743Z,33.80
2019-03-19T12:39:01.715Z,36.77
2019-03-19T12:44:05.499Z,18.27
2019-03-19T12:49:09.460Z,82.77
2019-03-19T12:54:13.163Z,348.33
2019-03-19T12:59:20.469Z,96.87
2019-03-19T13:04:22.572Z,31.20
2019-03-19T13:09:26.346Z,18.93
2019-03-19T13:14:30.059Z,44.77
2019-03-19T13:19:33.759Z,16.43
2019-03-19T13:24:37.455Z,52.03
2019-03-19T13:29:41.151Z,20.83
2019-03-19T13:34:44.868Z,20.10
2019-03-19T13:39:48.568Z,23.17
2019-03-19T13:44:52.270Z,27.17
2019-03-19T13:49:55.968Z,71.60
2019-03-19T13:54:59.675Z,52.53
2019-03-19T14:00:03.761Z,21.90
2019-03-19T14:05:09.056Z,47.83
2019-03-19T14:10:13.190Z,103.60
2019-03-19T14:15:16.992Z,35.77
2019-03-19T14:20:20.823Z,13.53
2019-03-19T14:25:25.583Z,29.77
2019-03-19T14:30:29.276Z,12.90
2019-03-19T14:35:37.599Z,18.53
2019-03-19T14:40:39.620Z,11.63
2019-03-19T14:45:43.311Z,16.83
2019-03-19T14:50:47.003Z,14.63
2019-03-19T14:55:50.788Z,14.10
2019-03-19T15:00:54.491Z,17.70
2019-03-19T15:05:58.190Z,15.00
2019-03-19T15:11:02.145Z,25.97
2019-03-19T15:16:06.787Z,28.33
2019-03-19T15:21:10.501Z,23.23
2019-03-19T15:26:14.215Z,13.70
2019-03-19T15:31:17.956Z,28.83
2019-03-19T15:36:21.935Z,18.23
2019-03-19T15:41:25.703Z,46.87
2019-03-19T15:46:29.419Z,13.70
2019-03-19T15:51:33.519Z,23.03
2019-03-19T15:56:37.208Z,14.43
2019-03-19T16:01:41.364Z,37.33
2019-03-19T16:06:45.377Z,248.43
2019-03-19T16:11:49.167Z,16.10
2019-03-19T16:16:52.963Z,572.80
2019-03-19T16:21:56.924Z,634.33
2019-03-19T16:27:00.688Z,761.37
2019-03-19T16:32:04.471Z,54.67
2019-03-19T16:37:08.440Z,396.83
2019-03-19T16:42:14.238Z,907.10
2019-03-19T16:47:17.946Z,142.43
2019-03-19T16:52:21.651Z,276.03
2019-03-19T16:57:25.454Z,603.43
2019-03-19T17:02:29.226Z,798.67
2019-03-19T17:07:33.536Z,999.90
2019-03-19T17:12:37.259Z,999.90
2019-03-19T17:17:42.158Z,999.90
2019-03-19T17:22:45.974Z,902.63
2019-03-19T17:27:49.842Z,999.90
2019-03-19T17:32:53.756Z,999.90
2019-03-19T17:37:57.908Z,999.90
2019-03-19T17:43:02.701Z,999.90
2019-03-19T17:48:15.626Z,999.90
2019-03-19T17:53:11.926Z,999.90
2019-03-19T17:58:15.636Z,999.90
2019-03-19T18:03:19.394Z,999.90
2019-03-19T18:08:23.120Z,999.90
2019-03-19T18:13:26.848Z,995.67
2019-03-19T18:18:30.646Z,999.90
2019-03-19T18:23:34.384Z,999.90
2019-03-19T18:28:38.282Z,451.70
2019-03-19T18:33:42.146Z,787.97
2019-03-19T18:38:45.951Z,764.07
2019-03-19T18:43:49.934Z,763.67
2019-03-19T18:48:53.659Z,823.53
2019-03-19T18:53:57.371Z,822.73
2019-03-19T18:59:01.343Z,759.40
2019-03-19T19:04:05.264Z,737.77
2019-03-19T19:09:09.585Z,740.07
2019-03-19T19:14:13.318Z,786.07
2019-03-19T19:19:17.025Z,753.73
2019-03-19T19:24:20.756Z,454.10
2019-03-19T19:29:24.462Z,754.07
2019-03-19T19:34:28.175Z,999.90
2019-03-19T19:39:31.917Z,999.90
2019-03-19T19:44:35.635Z,839.00
2019-03-19T19:49:39.917Z,961.00
2019-03-19T19:54:43.656Z,833.50
2019-03-19T19:59:47.374Z,999.90
2019-03-19T20:05:02.344Z,911.27
2019-03-19T20:09:57.472Z,999.90
2019-03-19T20:15:01.192Z,980.47
2019-03-19T20:20:05.856Z,999.90
2019-03-19T20:25:09.967Z,999.90
2019-03-19T20:30:15.844Z,999.90
2019-03-19T20:35:19.651Z,999.90
2019-03-19T20:40:23.441Z,999.90
2019-03-19T20:45:27.168Z,999.90
2019-03-19T20:50:30.913Z,999.90
2019-03-19T20:55:34.924Z,999.90
2019-03-19T21:00:38.647Z,999.90
2019-03-19T21:05:42.387Z,998.67
2019-03-19T21:10:46.212Z,999.90
2019-03-19T21:15:49.952Z,999.90
2019-03-19T21:20:53.668Z,999.90
2019-03-19T21:25:59.466Z,999.90
2019-03-19T21:31:03.393Z,999.90
2019-03-19T21:36:07.216Z,977.03
2019-03-19T21:41:11.299Z,951.80
2019-03-19T21:46:15.023Z,901.33
2019-03-19T21:51:18.731Z,891.97
2019-03-19T21:56:22.453Z,818.57
2019-03-19T22:01:26.159Z,760.17
2019-03-19T22:06:29.879Z,660.80
2019-03-19T22:11:33.578Z,609.70
2019-03-19T22:16:37.287Z,688.03
2019-03-19T22:21:41.008Z,583.63
2019-03-19T22:26:44.997Z,464.07
2019-03-19T22:31:48.742Z,442.20
2019-03-19T22:36:52.708Z,362.27
2019-03-19T22:41:56.432Z,399.23
2019-03-19T22:47:00.223Z,340.70
2019-03-19T22:52:03.952Z,347.60
2019-03-19T22:57:07.675Z,320.57
2019-03-19T23:02:11.495Z,281.23
2019-03-19T23:07:15.195Z,296.40
2019-03-19T23:12:18.939Z,249.17
2019-03-19T23:17:22.754Z,328.60
2019-03-19T23:22:26.499Z,222.07
2019-03-19T23:27:32.939Z,218.20
2019-03-19T23:32:36.658Z,211.33
2019-03-19T23:37:40.390Z,232.70
2019-03-19T23:42:44.361Z,247.20
2019-03-19T23:47:48.303Z,196.37
2019-03-19T23:52:52.095Z,38.30
2019-03-19T23:57:55.813Z,36.37
